METAR Data
IDs: Format: Raw Decoded Include TAF

Data at: 1916 UTC 25 Oct 2021

EDHI 251850Z AUTO 21005KT 9999 // BKN024/// BKN036/// BKN063/// 11/08 Q1016